SGAS/ASU METAR and TAF weather

Enter ICAO airport designator
Station Type Date Time Source
SGAS METAR 2021/05/12 03:00 UTC NOAA

SGAS 120300Z 19010KT 9999 BKN004 OVC013 15/13 Q1021


Station Type Date Time Source
SGAS Decoded METAR 2021/05/12 03:00 UTC NOAA

Asuncion / Aeropuerto, Paraguay (SGAS) 25-16S 057-38W 101M
May 11, 2021 - 11:00 PM EDT / 2021.05.12 0300 UTC
Wind: from the S (190 degrees) at 12 MPH (10 KT):0
Visibility: greater than 7 mile(s):0
Sky conditions: overcast
Temperature: 59 F (15 C)
Dew Point: 55 F (13 C)
Relative Humidity: 87%
Pressure (altimeter): 30.15 in. Hg (1021 hPa)
ob: SGAS 120300Z 19010KT 9999 BKN004 OVC013 15/13 Q1021
cycle: 3

Station Type Date Time Source
SGAS TAF 2021/05/12 00:00 UTC NOAA

TAF SGAS 112300Z 1200/1300 18010KT 8000 DZ OVC010 TX20/1216Z TN11/1209Z
BECMG 1203/1206 18005KT 9999 -DZ OVC015 PROB30 1208/1211 5000 BRDZ BKN015
BECMG 1213/1216 18010KT 9999 BKN020
BECMG 1218/1221 19005KT 9999 SCT033

Example: see airport list